Time;durP1;ratioP1;P1;durP2;ratioP2;P2;SDS_P1;SDS_P2;PMS_P1;PMS_P2;Temp;Humidity;BMP_temperature;BMP_pressure;BME280_temperature;BME280_humidity;BME280_pressure;Samples;Min_cycle;Max_cycle;Signal;HPM_P1;HPM_P2
2023/08/09 00:01:36;;;;;;;5.97;3.05;;;;;;;15.46;100.00;101151.78;5068118;28;20307;-75
2023/08/09 00:04:03;;;;;;;4.03;3.00;;;;;;;15.42;100.00;101161.03;5063279;28;20123;-74
2023/08/09 00:06:30;;;;;;;3.58;2.90;;;;;;;15.45;100.00;101160.72;5054425;28;20052;-75
2023/08/09 00:08:56;;;;;;;4.00;2.58;;;;;;;15.46;100.00;101151.78;5051050;28;20163;-75
2023/08/09 00:11:23;;;;;;;4.57;2.95;;;;;;;15.45;100.00;101158.06;5055792;28;20107;-75
2023/08/09 00:13:49;;;;;;;4.43;3.03;;;;;;;15.49;100.00;101155.91;5070099;28;20453;-75
2023/08/09 00:16:16;;;;;;;3.35;2.67;;;;;;;15.50;100.00;101165.47;5062643;28;20129;-75
2023/08/09 00:18:42;;;;;;;3.55;2.65;;;;;;;15.51;100.00;101160.03;5059250;28;20491;-75
2023/08/09 00:21:09;;;;;;;5.07;2.67;;;;;;;15.43;100.00;101163.53;5061065;28;20497;-75
2023/08/09 00:23:36;;;;;;;4.03;2.50;;;;;;;15.47;100.00;101163.19;5069217;28;20048;-76
2023/08/09 00:26:02;;;;;;;3.10;2.35;;;;;;;15.46;100.00;101162.34;5054834;28;20092;-75
2023/08/09 00:28:29;;;;;;;2.80;2.38;;;;;;;15.43;100.00;101158.22;5060292;28;20047;-75
2023/08/09 00:30:55;;;;;;;3.85;2.40;;;;;;;15.44;100.00;101164.34;5074249;28;20587;-74
2023/08/09 00:33:22;;;;;;;4.63;2.60;;;;;;;15.42;100.00;101167.16;5053844;28;20722;-76
2023/08/09 00:35:48;;;;;;;3.55;2.78;;;;;;;15.33;100.00;101164.72;5078575;28;20132;-74
2023/08/09 00:38:15;;;;;;;2.60;2.40;;;;;;;15.30;100.00;101176.44;5087829;28;20048;-75
2023/08/09 00:40:41;;;;;;;5.53;3.17;;;;;;;15.24;100.00;101174.47;5095956;28;20044;-74
2023/08/09 00:43:08;;;;;;;3.65;3.08;;;;;;;15.20;100.00;101166.03;5086312;28;20028;-74
2023/08/09 00:45:37;;;;;;;4.32;2.90;;;;;;;15.19;100.00;101164.41;5070966;28;20043;-75
2023/08/09 00:48:04;;;;;;;5.25;3.40;;;;;;;15.15;100.00;101163.09;5053297;28;20105;-75
2023/08/09 00:50:31;;;;;;;6.60;3.20;;;;;;;15.15;100.00;101168.38;5050420;28;20067;-75
2023/08/09 00:52:58;;;;;;;5.22;3.13;;;;;;;15.14;100.00;101168.56;5069164;28;20579;-75
2023/08/09 00:55:25;;;;;;;4.72;3.35;;;;;;;15.08;100.00;101179.78;5056607;28;20415;-75
2023/08/09 00:57:52;;;;;;;5.03;2.92;;;;;;;15.07;100.00;101189.50;5066871;28;20052;-73
2023/08/09 01:00:19;;;;;;;4.22;3.42;;;;;;;15.07;100.00;101186.06;5072746;28;20094;-75
2023/08/09 01:02:46;;;;;;;5.30;3.20;;;;;;;15.07;100.00;101181.59;5067323;28;20049;-75
2023/08/09 01:05:13;;;;;;;5.20;3.60;;;;;;;15.05;100.00;101180.94;5060248;28;20389;-75
2023/08/09 01:07:53;;;;;;;5.65;3.40;;;;;;;15.00;100.00;101181.44;5065464;28;20346;-75
2023/08/09 01:10:28;;;;;;;5.07;3.08;;;;;;;14.98;100.00;101183.44;5064621;28;20867;-74
2023/08/09 01:13:01;;;;;;;5.03;3.70;;;;;;;14.96;100.00;101182.78;5063413;28;20079;-74
2023/08/09 01:15:29;;;;;;;5.65;3.53;;;;;;;14.93;100.00;101180.44;5067304;28;20040;-75
2023/08/09 01:17:57;;;;;;;4.32;3.70;;;;;;;14.93;100.00;101185.72;5068263;28;20062;-74
2023/08/09 01:20:25;;;;;;;5.95;3.40;;;;;;;14.85;100.00;101191.03;5076969;28;20059;-75
2023/08/09 01:23:09;;;;;;;7.22;4.18;;;;;;;14.80;100.00;101186.25;5054645;28;20072;-75
2023/08/09 01:25:36;;;;;;;4.20;3.25;;;;;;;14.78;100.00;101190.88;5043644;28;20744;-75
2023/08/09 01:28:03;;;;;;;5.70;4.10;;;;;;;14.70;100.00;101192.66;5055191;28;20044;-74
2023/08/09 01:30:30;;;;;;;4.55;3.80;;;;;;;14.67;100.00;101190.38;5049141;28;20949;-75
2023/08/09 01:32:57;;;;;;;5.85;4.38;;;;;;;14.61;100.00;101197.13;5079057;28;20076;-74
2023/08/09 01:35:25;;;;;;;7.57;4.63;;;;;;;14.65;100.00;101190.53;5074605;28;20253;-74
2023/08/09 01:37:57;;;;;;;5.88;4.47;;;;;;;14.66;100.00;101199.25;5063785;28;20457;-75
2023/08/09 01:40:25;;;;;;;10.20;4.60;;;;;;;14.59;100.00;101191.19;5066076;28;20049;-74
2023/08/09 01:42:52;;;;;;;9.27;6.28;;;;;;;14.58;100.00;101198.28;5082809;28;20048;-74
2023/08/09 01:45:19;;;;;;;8.18;6.18;;;;;;;14.54;100.00;101201.38;5070813;28;20048;-75
2023/08/09 01:47:46;;;;;;;8.00;5.70;;;;;;;14.65;100.00;101201.09;5069604;28;20757;-74
2023/08/09 01:50:20;;;;;;;8.23;6.43;;;;;;;14.69;100.00;101207.69;5058254;28;20044;-74
2023/08/09 01:52:47;;;;;;;9.55;6.72;;;;;;;14.70;100.00;101206.72;5061837;28;20060;-73
2023/08/09 01:55:19;;;;;;;10.80;7.55;;;;;;;14.72;100.00;101203.88;5075909;28;20142;-74
2023/08/09 01:57:47;;;;;;;9.95;7.00;;;;;;;14.77;100.00;101202.41;5048693;28;20138;-73
2023/08/09 02:00:16;;;;;;;12.27;9.10;;;;;;;14.73;100.00;101209.00;5074007;28;20052;-73
2023/08/09 02:02:43;;;;;;;11.90;8.98;;;;;;;14.77;100.00;101212.97;5062773;28;20070;-73
2023/08/09 02:05:10;;;;;;;11.98;9.45;;;;;;;14.78;100.00;101216.47;5062454;28;20051;-74
2023/08/09 02:07:36;;;;;;;15.18;9.35;;;;;;;14.79;100.00;101224.19;5049244;28;20048;-74
2023/08/09 02:10:04;;;;;;;13.57;9.80;;;;;;;14.81;100.00;101231.97;5059370;28;20394;-73
2023/08/09 02:12:31;;;;;;;12.73;10.13;;;;;;;14.83;100.00;101224.69;5077123;28;20085;-73
2023/08/09 02:14:57;;;;;;;13.48;10.30;;;;;;;14.77;100.00;101233.28;5075267;28;20051;-74
2023/08/09 02:17:24;;;;;;;14.40;10.43;;;;;;;14.80;100.00;101236.41;5052310;28;20052;-74
2023/08/09 02:19:50;;;;;;;12.77;10.13;;;;;;;14.79;100.00;101237.41;5068674;28;20450;-74
2023/08/09 02:22:17;;;;;;;15.10;9.93;;;;;;;14.83;100.00;101235.25;5067418;28;20048;-73
2023/08/09 02:24:44;;;;;;;13.02;10.60;;;;;;;14.89;100.00;101236.41;5074302;28;20057;-73
2023/08/09 02:27:11;;;;;;;13.45;9.50;;;;;;;14.91;100.00;101239.72;5073464;28;20052;-73
2023/08/09 02:29:37;;;;;;;13.43;9.80;;;;;;;14.83;100.00;101235.25;5075281;28;20072;-73
2023/08/09 02:32:04;;;;;;;14.15;11.30;;;;;;;14.88;100.00;101234.75;5070068;28;20110;-73
2023/08/09 02:34:31;;;;;;;13.85;10.73;;;;;;;14.89;100.00;101236.41;5080129;28;20048;-73
2023/08/09 02:36:58;;;;;;;15.38;10.93;;;;;;;14.93;100.00;101246.47;5082019;28;20052;-73
2023/08/09 02:39:24;;;;;;;13.73;9.60;;;;;;;14.92;100.00;101236.91;5071081;28;20052;-73
2023/08/09 02:41:51;;;;;;;14.93;10.63;;;;;;;14.97;100.00;101241.69;5073267;28;20068;-70
2023/08/09 02:44:18;;;;;;;17.42;11.52;;;;;;;14.86;100.00;101245.50;5064066;28;20095;-70
2023/08/09 02:46:44;;;;;;;17.20;11.88;;;;;;;14.87;100.00;101239.22;5068828;28;20163;-70
2023/08/09 02:49:11;;;;;;;13.20;10.18;;;;;;;14.86;100.00;101239.38;5071969;28;20043;-71
2023/08/09 02:51:38;;;;;;;15.55;11.13;;;;;;;14.89;100.00;101252.25;5068493;28;20064;-69
2023/08/09 02:54:05;;;;;;;17.27;11.23;;;;;;;14.85;100.00;101254.41;5068352;28;20048;-70
2023/08/09 02:56:33;;;;;;;16.02;11.63;;;;;;;14.84;100.00;101252.78;5066453;28;20072;-73
2023/08/09 02:59:00;;;;;;;21.60;11.95;;;;;;;14.76;100.00;101252.72;5067662;28;20574;-73
2023/08/09 03:01:29;;;;;;;17.20;11.20;;;;;;;14.72;100.00;101248.78;5068724;28;20093;-72
2023/08/09 03:03:56;;;;;;;16.30;10.55;;;;;;;14.73;100.00;101251.25;5075654;28;20206;-72
2023/08/09 03:06:22;;;;;;;17.48;12.23;;;;;;;14.68;100.00;101253.59;5051027;28;20052;-72
2023/08/09 03:08:51;;;;;;;19.27;12.00;;;;;;;14.63;100.00;101254.03;5064116;28;20504;-72
2023/08/09 03:11:18;;;;;;;;;;;;;;;14.63;100.00;101261.16;5072719;28;20047;-73
2023/08/09 03:13:44;;;;;;;15.77;11.63;;;;;;;14.54;100.00;101259.44;5064789;28;19932;-73
2023/08/09 03:16:12;;;;;;;16.45;12.05;;;;;;;14.52;100.00;101267.50;5051847;28;20047;-72
2023/08/09 03:18:40;;;;;;;19.15;11.82;;;;;;;14.56;100.00;101266.25;5065547;28;20101;-72
2023/08/09 03:21:07;;;;;;;19.25;12.65;;;;;;;14.59;100.00;101263.28;5075249;28;20117;-73
2023/08/09 03:23:34;;;;;;;16.45;11.27;;;;;;;14.62;100.00;101262.13;5073460;28;20047;-73
2023/08/09 03:26:01;;;;;;;22.25;13.00;;;;;;;14.54;100.00;101262.91;5064815;28;20058;-72
2023/08/09 03:28:28;;;;;;;19.88;11.85;;;;;;;14.51;100.00;101265.88;5079348;28;20040;-72
2023/08/09 03:30:55;;;;;;;25.23;12.43;;;;;;;14.48;100.00;101268.00;5070861;28;20061;-73
2023/08/09 03:33:22;;;;;;;20.25;12.98;;;;;;;14.51;100.00;101278.25;5072639;28;20044;-73
2023/08/09 03:35:48;;;;;;;18.38;11.90;;;;;;;14.54;100.00;101281.38;5065728;28;20051;-73
2023/08/09 03:38:15;;;;;;;20.63;11.18;;;;;;;14.55;100.00;101274.31;5052692;28;20052;-74
2023/08/09 03:40:41;;;;;;;20.50;12.77;;;;;;;14.57;100.00;101283.75;5069244;28;20048;-74
2023/08/09 03:43:08;;;;;;;18.70;11.82;;;;;;;14.61;100.00;101290.34;5066152;28;20045;-74
2023/08/09 03:45:34;;;;;;;24.05;12.15;;;;;;;14.63;100.00;101293.66;5072602;28;20055;-74
2023/08/09 03:48:01;;;;;;;28.75;11.70;;;;;;;14.60;100.00;101296.63;5069899;28;20048;-74
2023/08/09 03:50:28;;;;;;;18.63;11.60;;;;;;;14.63;100.00;101304.22;5074530;28;20052;-74
2023/08/09 03:52:55;;;;;;;20.85;12.23;;;;;;;14.67;100.00;101296.78;5062011;28;20629;-74
2023/08/09 03:55:21;;;;;;;19.55;12.32;;;;;;;14.66;100.00;101302.22;5073629;28;20076;-74
2023/08/09 03:57:48;;;;;;;18.92;12.35;;;;;;;14.74;100.00;101302.25;5072239;28;20063;-74
2023/08/09 04:00:17;;;;;;;20.88;11.30;;;;;;;14.77;100.00;101304.56;5064197;28;20278;-74
2023/08/09 04:02:45;;;;;;;20.38;11.18;;;;;;;14.79;100.00;101310.53;5048950;28;20415;-73
2023/08/09 04:05:12;;;;;;;19.27;12.57;;;;;;;14.85;100.00;101312.50;5037710;28;20911;-74
2023/08/09 04:07:38;;;;;;;34.25;12.57;;;;;;;14.78;100.00;101314.97;5062173;28;20544;-74
2023/08/09 04:10:09;;;;;;;29.83;12.65;;;;;;;14.76;100.00;101316.97;5050814;28;20050;-74
2023/08/09 04:12:35;;;;;;;29.33;12.45;;;;;;;14.71;100.00;101318.44;5068495;28;20098;-74
2023/08/09 04:15:04;;;;;;;27.48;10.73;;;;;;;14.59;100.00;101315.25;5047035;28;20064;-75
2023/08/09 04:17:32;;;;;;;20.08;12.23;;;;;;;14.62;100.00;101325.50;5049914;28;20056;-74
2023/08/09 04:20:00;;;;;;;25.73;12.25;;;;;;;14.62;100.00;101325.50;5069226;28;20056;-74
2023/08/09 04:22:26;;;;;;;19.05;11.07;;;;;;;14.69;100.00;101330.97;5056165;28;20060;-74
2023/08/09 04:24:53;;;;;;;21.05;12.93;;;;;;;14.70;100.00;101328.19;5063633;28;20102;-73
2023/08/09 04:27:21;;;;;;;17.80;11.80;;;;;;;14.75;100.00;101330.31;5056577;28;20063;-74
2023/08/09 04:29:48;;;;;;;41.90;13.23;;;;;;;14.74;100.00;101333.94;5063343;28;20045;-73
2023/08/09 04:32:14;;;;;;;17.42;11.95;;;;;;;14.75;100.00;101333.78;5060056;28;20121;-73
2023/08/09 04:34:41;;;;;;;46.38;13.38;;;;;;;14.67;100.00;101335.59;5057114;28;20376;-73
2023/08/09 04:37:07;;;;;;;30.40;13.75;;;;;;;14.66;100.00;101342.66;5065373;28;20119;-73
2023/08/09 04:39:34;;;;;;;31.80;13.48;;;;;;;14.66;100.00;101347.94;5063507;28;20044;-74
2023/08/09 04:42:02;;;;;;;37.10;13.30;;;;;;;14.64;100.00;101347.28;5074894;28;20084;-73
2023/08/09 04:44:30;;;;;;;36.22;12.52;;;;;;;14.60;100.00;101348.59;5071889;28;20472;-73
2023/08/09 04:46:58;;;;;;;22.33;12.75;;;;;;;14.72;100.00;101349.97;5050120;28;20051;-74
2023/08/09 04:49:26;;;;;;;36.50;13.38;;;;;;;14.65;100.00;101356.84;5062095;28;20045;-73
2023/08/09 04:51:53;;;;;;;36.40;11.52;;;;;;;14.56;100.00;101356.03;5065735;28;20143;-73
2023/08/09 04:54:20;;;;;;;33.88;12.68;;;;;;;14.54;100.00;101349.19;5076523;28;20153;-74
2023/08/09 04:56:47;;;;;;;25.13;11.75;;;;;;;14.47;100.00;101358.75;5064963;28;20128;-74
2023/08/09 04:59:14;;;;;;;24.17;12.95;;;;;;;14.54;100.00;101359.75;5070469;28;20036;-74
2023/08/09 05:01:41;;;;;;;20.98;12.85;;;;;;;14.60;100.00;101354.72;5071881;28;20125;-73
2023/08/09 05:04:08;;;;;;;29.75;12.38;;;;;;;14.65;100.00;101364.78;5063538;28;20470;-74
2023/08/09 05:06:35;;;;;;;25.92;13.73;;;;;;;14.65;100.00;101363.97;5081087;28;20044;-73
2023/08/09 05:09:03;;;;;;;23.75;14.60;;;;;;;14.64;100.00;101363.13;5048010;28;20047;-74
2023/08/09 05:11:29;;;;;;;23.85;13.20;;;;;;;14.74;100.00;101369.13;5072980;28;20067;-73
2023/08/09 05:13:56;;;;;;;19.13;12.68;;;;;;;14.86;100.00;101372.28;5052562;28;20075;-74
2023/08/09 05:16:25;;;;;;;27.33;13.98;;;;;;;14.87;100.00;101375.75;5078903;28;20141;-74
2023/08/09 05:18:52;;;;;;;24.00;14.32;;;;;;;14.92;100.00;101373.47;5075084;28;20040;-73
2023/08/09 05:21:19;;;;;;;29.60;14.95;;;;;;;14.95;100.00;101360.72;5070254;28;20053;-73
2023/08/09 05:23:46;;;;;;;25.90;13.90;;;;;;;15.07;100.00;101376.28;5078343;28;20397;-73
2023/08/09 05:26:12;;;;;;;27.88;15.07;;;;;;;15.13;100.00;101373.81;5063397;28;20134;-73
2023/08/09 05:28:39;;;;;;;30.20;16.52;;;;;;;15.20;100.00;101377.44;5074551;28;20076;-74
2023/08/09 05:31:05;;;;;;;26.30;15.30;;;;;;;15.30;100.00;101371.19;5067658;28;20040;-73
2023/08/09 05:33:32;;;;;;;31.63;16.77;;;;;;;15.27;100.00;101380.28;5071630;28;20466;-75
2023/08/09 05:35:59;;;;;;;34.65;17.83;;;;;;;15.28;100.00;101383.75;5048576;28;20067;-74
2023/08/09 05:38:26;;;;;;;28.60;16.83;;;;;;;15.34;100.00;101386.56;5072247;28;20396;-75
2023/08/09 05:40:54;;;;;;;27.80;16.90;;;;;;;15.37;100.00;101386.25;5076990;28;20110;-74
2023/08/09 05:43:21;;;;;;;34.97;18.23;;;;;;;15.34;100.00;101391.84;5069502;28;20095;-73
2023/08/09 05:45:47;;;;;;;25.30;15.95;;;;;;;15.11;100.00;101394.31;5079725;28;20151;-73
2023/08/09 05:48:14;;;;;;;27.10;15.43;;;;;;;15.16;100.00;101396.44;5047298;28;20048;-73
2023/08/09 05:50:40;;;;;;;27.50;14.30;;;;;;;15.11;100.00;101396.09;5056416;28;20652;-73
2023/08/09 05:53:09;;;;;;;22.95;14.30;;;;;;;15.17;100.00;101395.44;5039296;28;20056;-74
2023/08/09 05:55:36;;;;;;;29.00;14.88;;;;;;;15.21;100.00;101400.25;5046161;28;20052;-73
2023/08/09 05:58:03;;;;;;;26.23;15.27;;;;;;;15.26;100.00;101397.13;5037762;28;20045;-73
2023/08/09 06:00:30;;;;;;;31.48;16.25;;;;;;;15.25;100.00;101411.34;5050627;28;20490;-74
2023/08/09 06:02:59;;;;;;;27.55;16.27;;;;;;;15.29;100.00;101410.03;5034048;28;20068;-74
2023/08/09 06:05:26;;;;;;;;;;;;;;;15.43;100.00;101413.84;5053697;28;20490;-74
2023/08/09 06:07:53;;;;;;;30.38;16.90;;;;;;;15.43;100.00;101412.00;5063391;28;20205;-72
2023/08/09 06:10:20;;;;;;;30.17;16.42;;;;;;;15.41;100.00;101415.81;5046618;28;20084;-72
2023/08/09 06:12:47;;;;;;;33.65;17.38;;;;;;;15.38;100.00;101418.78;5051626;28;20048;-73
2023/08/09 06:15:14;;;;;;;32.50;17.15;;;;;;;15.45;100.00;101418.97;5059767;28;20531;-74
2023/08/09 06:17:41;;;;;;;22.83;13.05;;;;;;;15.39;100.00;101423.09;5063354;28;20068;-74
2023/08/09 06:20:08;;;;;;;21.80;11.07;;;;;;;15.29;100.00;101430.31;5051040;28;20044;-73
2023/08/09 06:22:34;;;;;;;21.45;11.63;;;;;;;15.32;100.00;101430.00;5048946;28;20048;-73
2023/08/09 06:25:01;;;;;;;21.50;11.63;;;;;;;15.32;100.00;101428.19;5057226;28;20106;-73
2023/08/09 06:27:28;;;;;;;20.30;11.32;;;;;;;15.38;100.00;101429.34;5051776;28;20056;-73
2023/08/09 06:29:54;;;;;;;19.73;10.77;;;;;;;15.33;100.00;101429.84;5052944;28;20228;-74
2023/08/09 06:32:21;;;;;;;16.75;9.23;;;;;;;15.28;100.00;101431.31;5044311;28;20786;-74
2023/08/09 06:34:48;;;;;;;18.53;10.57;;;;;;;15.32;100.00;101435.28;5049077;28;20085;-73
2023/08/09 06:37:15;;;;;;;17.80;10.13;;;;;;;15.35;100.00;101437.63;5038404;28;20139;-74
2023/08/09 06:39:42;;;;;;;16.63;8.85;;;;;;;15.37;100.00;101440.94;5062054;28;20501;-74
2023/08/09 06:42:12;;;;;;;19.30;10.65;;;;;;;15.39;100.00;101450.34;5058489;28;20130;-74
2023/08/09 06:44:39;;;;;;;18.42;10.52;;;;;;;15.49;100.00;101452.84;5048774;28;20049;-73
2023/08/09 06:47:06;;;;;;;20.52;11.00;;;;;;;15.49;100.00;101452.00;5049212;28;20056;-74
2023/08/09 06:49:32;;;;;;;21.42;11.15;;;;;;;15.41;100.00;101460.75;5033314;28;20052;-73
2023/08/09 06:52:00;;;;;;;21.23;11.68;;;;;;;15.45;100.00;101467.38;5046450;28;20045;-74
2023/08/09 06:54:27;;;;;;;23.85;11.55;;;;;;;15.38;100.00;101467.19;5052399;28;20485;-74
2023/08/09 06:56:54;;;;;;;18.77;11.85;;;;;;;15.51;100.00;101477.28;5062641;28;20048;-73
2023/08/09 06:59:21;;;;;;;23.08;11.45;;;;;;;15.57;100.00;101481.09;5049624;28;20041;-74
2023/08/09 07:01:48;;;;;;;20.15;11.63;;;;;;;15.58;100.00;101472.16;5041527;28;20252;-73
2023/08/09 07:04:16;;;;;;;20.83;11.67;;;;;;;15.54;100.00;101482.28;5064970;28;20052;-74
2023/08/09 07:06:44;;;;;;;24.80;11.88;;;;;;;15.54;100.00;101484.06;5055037;28;20076;-74
2023/08/09 07:09:12;;;;;;;16.95;10.82;;;;;;;15.59;100.00;101479.94;5062570;28;20065;-74
2023/08/09 07:11:39;;;;;;;15.73;11.07;;;;;;;15.67;100.00;101484.41;5055775;28;20053;-73
2023/08/09 07:14:06;;;;;;;23.40;11.57;;;;;;;15.73;100.00;101485.63;5062686;28;20052;-73
2023/08/09 07:16:33;;;;;;;23.00;11.68;;;;;;;15.75;100.00;101487.09;5043562;28;20052;-74
2023/08/09 07:18:59;;;;;;;17.63;11.40;;;;;;;15.74;100.00;101492.53;5045146;28;20063;-74
2023/08/09 07:21:27;;;;;;;16.95;10.13;;;;;;;15.79;100.00;101492.88;5062052;28;20037;-73
2023/08/09 07:23:55;;;;;;;18.95;11.52;;;;;;;15.77;100.00;101490.41;5057701;28;20051;-73
2023/08/09 07:26:24;;;;;;;21.05;11.95;;;;;;;15.66;100.00;101487.22;5042927;28;20493;-74
2023/08/09 07:28:51;;;;;;;21.13;11.77;;;;;;;15.66;100.00;101490.72;5044027;28;20053;-73
2023/08/09 07:31:22;;;;;;;20.05;12.25;;;;;;;15.72;100.00;101489.22;5027857;28;20053;-74
2023/08/09 07:33:49;;;;;;;22.27;11.93;;;;;;;15.90;100.00;101495.22;5060933;28;20052;-73
2023/08/09 07:36:15;;;;;;;20.70;12.05;;;;;;;16.00;100.00;101487.94;5049335;28;20498;-74
2023/08/09 07:38:43;;;;;;;21.20;12.32;;;;;;;16.11;100.00;101488.59;5067949;28;20059;-74
2023/08/09 07:41:10;;;;;;;20.10;13.05;;;;;;;16.04;100.00;101499.03;5066138;28;20055;-74
2023/08/09 07:43:37;;;;;;;20.00;13.03;;;;;;;15.99;100.00;101496.88;5044744;28;20056;-73
2023/08/09 07:46:05;;;;;;;22.08;13.02;;;;;;;15.91;100.00;101493.38;5062405;28;20102;-74
2023/08/09 07:48:33;;;;;;;17.92;12.23;;;;;;;15.98;100.00;101497.03;5050964;28;20056;-74
2023/08/09 07:51:00;;;;;;;20.70;12.57;;;;;;;16.16;100.00;101502.97;5059662;28;20119;-74
2023/08/09 07:53:26;;;;;;;19.60;13.50;;;;;;;16.13;100.00;101511.25;5038303;28;20480;-73
2023/08/09 07:55:53;;;;;;;17.05;12.18;;;;;;;16.14;100.00;101504.97;5059189;28;20135;-75
2023/08/09 07:58:20;;;;;;;17.10;12.13;;;;;;;16.21;100.00;101508.59;5034186;28;20084;-74
2023/08/09 08:00:46;;;;;;;20.23;13.43;;;;;;;16.19;100.00;101515.03;5051812;28;20049;-74
2023/08/09 08:03:16;;;;;;;21.92;12.95;;;;;;;16.18;100.00;101519.50;5061483;28;20414;-74
2023/08/09 08:05:44;;;;;;;19.38;12.40;;;;;;;16.29;100.00;101517.50;5046014;28;20411;-74
2023/08/09 08:08:14;;;;;;;19.20;12.93;;;;;;;16.27;100.00;101522.16;5037809;28;20045;-74
2023/08/09 08:10:42;;;;;;;17.98;11.68;;;;;;;16.53;100.00;101525.44;5033617;28;20445;-74
2023/08/09 08:13:09;;;;;;;16.98;11.93;;;;;;;16.43;100.00;101519.50;5049707;28;20055;-74
2023/08/09 08:15:36;;;;;;;15.73;11.27;;;;;;;16.40;100.00;101514.53;5060629;28;20110;-73
2023/08/09 08:18:08;;;;;;;16.17;10.63;;;;;;;16.52;100.00;101517.66;5035356;28;20056;-74
2023/08/09 08:20:34;;;;;;;16.23;11.60;;;;;;;16.71;100.00;101506.69;5057520;28;20386;-74
2023/08/09 08:23:01;;;;;;;18.45;11.30;;;;;;;16.89;100.00;101519.75;5042089;28;20044;-74
2023/08/09 08:25:28;;;;;;;16.05;9.48;;;;;;;16.96;100.00;101517.25;5035880;28;20053;-74
2023/08/09 08:27:55;;;;;;;12.32;10.07;;;;;;;16.93;100.00;101523.69;5034745;28;21412;-74
2023/08/09 08:30:21;;;;;;;15.68;9.23;;;;;;;17.07;100.00;101527.47;5063953;28;20501;-74
2023/08/09 08:32:49;;;;;;;12.43;9.65;;;;;;;17.31;100.00;101533.66;5057227;28;20048;-74
2023/08/09 08:35:20;;;;;;;11.55;8.63;;;;;;;17.66;100.00;101539.41;5052250;28;20102;-74
2023/08/09 08:37:48;;;;;;;14.10;8.45;;;;;;;17.65;100.00;101537.78;5052886;28;20068;-73
2023/08/09 08:40:20;;;;;;;12.00;8.32;;;;;;;17.71;100.00;101548.50;5042506;28;20053;-74
2023/08/09 08:42:48;;;;;;;12.38;7.85;;;;;;;17.69;100.00;101547.03;5042641;28;20056;-74
2023/08/09 08:45:15;;;;;;;15.60;9.07;;;;;;;17.77;100.00;101552.28;5044896;28;20118;-74
2023/08/09 08:47:44;;;;;;;9.50;7.90;;;;;;;17.87;100.00;101549.44;5064489;28;20068;-74
2023/08/09 08:50:14;;;;;;;12.48;8.60;;;;;;;17.91;100.00;101540.13;5064127;28;20052;-74
2023/08/09 08:52:44;;;;;;;11.75;7.00;;;;;;;18.42;100.00;101547.50;5052299;28;20120;-73
2023/08/09 08:55:12;;;;;;;15.52;7.90;;;;;;;18.52;100.00;101550.72;5056541;28;20095;-74
2023/08/09 08:57:40;;;;;;;13.07;7.82;;;;;;;18.63;100.00;101547.63;5027868;28;20068;-74
2023/08/09 09:00:16;;;;;;;11.25;6.57;;;;;;;18.85;100.00;101551.22;5065854;28;20045;-74
2023/08/09 09:02:54;;;;;;;11.25;6.72;;;;;;;19.04;100.00;101549.03;5050659;28;21030;-73
2023/08/09 09:05:22;;;;;;;11.73;7.25;;;;;;;18.94;100.00;101560.75;5048837;28;20116;-74
2023/08/09 09:07:56;;;;;;;10.18;6.90;;;;;;;18.72;100.00;101565.13;5051107;28;20044;-73
2023/08/09 09:10:24;;;;;;;7.00;5.78;;;;;;;18.84;100.00;101564.72;5060896;28;20458;-73
2023/08/09 09:12:53;;;;;;;10.97;6.23;;;;;;;18.90;100.00;101556.81;5042909;28;20044;-73
2023/08/09 09:15:20;;;;;;;10.20;5.97;;;;;;;18.79;100.00;101559.91;5064287;28;20055;-73
2023/08/09 09:17:48;;;;;;;13.70;6.47;;;;;;;18.80;100.00;101561.59;5065508;28;20160;-73
2023/08/09 09:20:21;;;;;;;8.93;5.18;;;;;;;18.77;100.00;101556.59;5041084;28;20632;-73
2023/08/09 09:22:48;;;;;;;9.18;5.55;;;;;;;18.95;100.00;101557.13;5033246;28;20128;-73
2023/08/09 09:25:17;;;;;;;9.32;5.72;;;;;;;19.26;100.00;101557.91;5053796;28;20542;-73
2023/08/09 09:27:49;;;;;;;7.82;5.28;;;;;;;19.65;100.00;101552.19;5065847;28;20080;-74
2023/08/09 09:30:19;;;;;;;10.80;5.32;;;;;;;19.89;100.00;101551.03;5042018;28;20410;-73
2023/08/09 09:32:51;;;;;;;8.82;5.05;;;;;;;19.81;100.00;101555.66;5057500;28;20044;-73
2023/08/09 09:35:19;;;;;;;7.32;4.43;;;;;;;19.91;100.00;101549.00;5059667;28;20056;-73
2023/08/09 09:37:50;;;;;;;9.15;4.22;;;;;;;19.96;100.00;101553.78;5055644;28;20048;-73
2023/08/09 09:40:22;;;;;;;5.88;3.90;;;;;;;20.17;100.00;101554.75;5034655;28;20482;-73
2023/08/09 09:42:56;;;;;;;6.60;4.10;;;;;;;19.95;100.00;101552.97;5037705;28;20051;-73
2023/08/09 09:45:27;;;;;;;6.00;4.18;;;;;;;19.93;100.00;101557.66;5032930;28;20648;-73
2023/08/09 09:47:55;;;;;;;7.22;4.00;;;;;;;20.04;100.00;101555.50;5053449;28;20041;-74
2023/08/09 09:50:27;;;;;;;7.65;3.80;;;;;;;20.09;100.00;101566.38;5033700;28;20072;-74
2023/08/09 09:52:54;;;;;;;7.85;4.40;;;;;;;20.03;100.00;101554.66;5048342;28;20048;-73
2023/08/09 09:55:28;;;;;;;7.35;4.05;;;;;;;20.08;100.00;101554.91;5043870;28;20052;-73
2023/08/09 09:57:57;;;;;;;7.75;4.13;;;;;;;20.03;100.00;101552.00;5054716;28;20044;-73
2023/08/09 10:00:28;;;;;;;6.30;3.47;;;;;;;20.05;100.00;101551.78;5052047;28;20048;-73
2023/08/09 10:02:58;;;;;;;7.93;3.53;;;;;;;19.97;100.00;101547.41;5061613;28;20040;-73
2023/08/09 10:05:35;;;;;;;4.90;3.05;;;;;;;20.12;100.00;101552.69;5051921;28;20044;-74
2023/08/09 10:08:04;;;;;;;4.55;3.13;;;;;;;20.18;100.00;101546.59;5062102;28;20063;-74
2023/08/09 10:10:42;;;;;;;8.37;3.03;;;;;;;20.25;99.31;101546.66;5060425;28;20511;-73
2023/08/09 10:13:11;;;;;;;6.40;2.95;;;;;;;20.05;96.18;101541.16;5061354;28;20366;-74
2023/08/09 10:15:46;;;;;;;5.20;3.03;;;;;;;19.93;89.91;101551.47;5038856;28;20063;-74
2023/08/09 10:18:18;;;;;;;6.78;2.70;;;;;;;19.97;93.58;101558.06;5040796;28;20045;-74
2023/08/09 10:20:50;;;;;;;4.30;2.50;;;;;;;19.96;93.67;101556.44;5043301;28;20080;-73
2023/08/09 10:23:25;;;;;;;5.22;2.70;;;;;;;19.95;93.49;101568.94;5039094;28;20053;-74
2023/08/09 10:25:53;;;;;;;6.80;3.13;;;;;;;19.71;95.37;101559.47;5059691;28;20057;-73
2023/08/09 10:28:47;;;;;;;7.00;2.83;;;;;;;19.87;100.00;101562.91;5049751;28;20056;-73
2023/08/09 10:31:14;;;;;;;4.63;2.70;;;;;;;19.69;100.00;101556.13;5061810;28;20071;-73
2023/08/09 10:34:08;;;;;;;4.18;2.72;;;;;;;19.60;100.00;101564.41;5058419;28;20052;-73
2023/08/09 10:36:35;;;;;;;4.38;2.35;;;;;;;19.68;100.00;101564.31;5036147;28;20141;-73
2023/08/09 10:39:10;;;;;;;4.85;2.50;;;;;;;19.65;97.20;101573.50;5071093;28;20052;-73
2023/08/09 10:41:37;;;;;;;5.95;2.67;;;;;;;19.66;99.84;101563.66;5044685;28;20060;-73
2023/08/09 10:44:04;;;;;;;5.97;2.80;;;;;;;19.59;100.00;101566.28;5057243;28;20052;-73
2023/08/09 10:46:34;;;;;;;4.93;2.33;;;;;;;19.66;100.00;101561.00;5056771;28;20094;-74
2023/08/09 10:49:05;;;;;;;4.57;2.45;;;;;;;19.69;100.00;101563.31;5057096;28;20471;-73
2023/08/09 10:51:33;;;;;;;4.75;2.72;;;;;;;19.70;95.39;101560.47;5049837;28;20138;-73
2023/08/09 10:54:05;;;;;;;5.00;2.67;;;;;;;19.78;100.00;101556.03;5058848;28;20072;-74
2023/08/09 10:56:41;;;;;;;5.95;2.50;;;;;;;19.92;97.77;101569.31;5056440;28;20437;-73
2023/08/09 10:59:12;;;;;;;5.50;2.63;;;;;;;20.07;98.73;101568.41;5057473;28;20051;-74
2023/08/09 11:01:42;;;;;;;3.60;2.50;;;;;;;19.97;94.36;101574.06;5031590;28;20053;-73
2023/08/09 11:04:13;;;;;;;6.30;2.63;;;;;;;20.02;96.20;101571.66;5050588;28;20175;-73
2023/08/09 11:06:41;;;;;;;7.57;2.78;;;;;;;20.17;97.42;101576.91;5065709;28;20493;-73
2023/08/09 11:09:11;;;;;;;5.30;3.45;;;;;;;20.04;93.40;101577.59;5036008;28;20063;-73
2023/08/09 11:11:40;;;;;;;3.50;3.10;;;;;;;20.23;94.00;101564.66;5062558;28;20127;-73
2023/08/09 11:14:08;;;;;;;4.85;2.88;;;;;;;20.31;95.39;101560.03;5027560;28;20049;-73